Portada
METAR-TAF:

METAR-TAF

Aeroports :

Aeroport Internacional de Xangai-Pudong

Xangai-Pudong, Xina

latitud: 31-07N, longitud: 121-46E, altitud: 4 m

Observació

L'informe es va fer fa 32 minuts, a les 04:00 UTC
Vent 10 kt del Nord/Nord-Est, variant entre Nord-Oest i Nord-Est
Temperatura 14°C
Humitat 33%
Pressió 1027 hPa
Visibilitat 10 km o més
sense núvols per sota de 1500 mi sense presència de cumulonimbus.

METAR: ZSPD 230400Z 02005MPS 320V050 CAVOK 14/M02 Q1027 NOSIG

Hora: 12:32 (04:32 UTC)

Pronòstic

L'informe es va fer fa 7 hores i 22 minuts, a les 21:10 UTC
Pronòstic vàlid del 23 a les 00 UTC al 23 a les 24 UTC
Vent 10 kt del Nord
Visibilitat: 6000 m
Cel ennuvolat a una alçada de 1600 ft
Evolucionant progressivament
l' 23 a les 14 UTC al 23 a les 15 UTC
Vent 8 kt del Est/Nord-Est

TAF: ZSPD 222110Z 2300/2324 36005MPS 6000 BKN016 TX15/2306Z TN06/2321Z BECMG 2314/2315 06004MPS

Observacions i pronòstics meteorològics de més de 4000 aeroports (METAR i TAF).

Les estacions disponibles són els punts grocs i vermells al mapa.

Posi el ratolí al punt desitjat per veure el nom de l'estació.

Feu clic per veure les observacions i els pronòstics meteorològics.

Per canviar el mapa: feu clic els botons verds amb una creu de color negre per apropar; al botó verd amb un guió per allunyar la imatge; o en les fletxes verdes per a mapes adjacents.


METAR-TAF: